Time;durP1;ratioP1;P1;durP2;ratioP2;P2;SDS_P1;SDS_P2;PMS_P1;PMS_P2;Temp;Humidity;BMP_temperature;BMP_pressure;BME280_temperature;BME280_humidity;BME280_pressure;Samples;Min_cycle;Max_cycle;Signal;HPM_P1;HPM_P2
2023/04/25 00:01:09;;;;;;;11.10;4.60;;;;;;;11.18;58.38;100371.65;107847;1251;99259;-63
2023/04/25 00:03:38;;;;;;;14.80;4.50;;;;;;;11.15;58.53;100372.45;107898;1253;112571;-63
2023/04/25 00:06:08;;;;;;;7.70;4.30;;;;;;;11.12;58.56;100370.77;107906;1253;109497;-62
2023/04/25 00:08:37;;;;;;;10.90;3.60;;;;;;;11.11;58.65;100372.36;107550;1251;108375;-62
2023/04/25 00:11:06;;;;;;;6.80;3.70;;;;;;;11.09;59.28;100376.85;107763;1251;99147;-61
2023/04/25 00:13:34;;;;;;;7.20;3.50;;;;;;;11.06;59.16;100373.56;107753;1254;99253;-63
2023/04/25 00:16:04;;;;;;;11.30;4.40;;;;;;;10.99;58.91;100370.23;107713;1257;112762;-62
2023/04/25 00:18:33;;;;;;;7.00;3.70;;;;;;;10.96;59.24;100373.94;107790;1251;109014;-63
2023/04/25 00:21:02;;;;;;;13.30;4.50;;;;;;;10.93;59.26;100368.24;107535;1251;108598;-62
2023/04/25 00:23:30;;;;;;;11.60;3.60;;;;;;;10.88;59.12;100363.55;107564;1253;99163;-63
2023/04/25 00:25:59;;;;;;;11.40;3.80;;;;;;;10.83;59.04;100362.98;107784;1252;99833;-63
2023/04/25 00:28:27;;;;;;;6.30;4.10;;;;;;;10.79;59.42;100356.70;107799;1252;112987;-62
2023/04/25 00:30:56;;;;;;;7.40;4.10;;;;;;;10.70;59.79;100355.84;107550;1251;108000;-63
2023/04/25 00:33:25;;;;;;;6.40;4.10;;;;;;;10.59;60.15;100354.98;107781;1250;108165;-62
2023/04/25 00:35:54;;;;;;;9.20;4.20;;;;;;;10.56;60.11;100344.79;107662;1251;99070;-62
2023/04/25 00:38:22;;;;;;;15.00;4.10;;;;;;;10.53;60.56;100343.46;107674;1251;99481;-64
2023/04/25 00:40:51;;;;;;;7.30;3.70;;;;;;;10.49;60.39;100341.96;107685;1256;113125;-63
2023/04/25 00:43:20;;;;;;;8.70;4.50;;;;;;;10.48;60.09;100344.95;107605;1251;109767;-63
2023/04/25 00:45:51;;;;;;;14.70;4.10;;;;;;;10.46;60.35;100340.83;107882;1251;107063;-62
2023/04/25 00:48:22;;;;;;;14.10;4.80;;;;;;;10.39;60.72;100346.34;107864;1251;99181;-63
2023/04/25 00:50:56;;;;;;;12.50;4.20;;;;;;;10.34;60.57;100342.86;107680;1253;100836;-63
2023/04/25 00:53:26;;;;;;;;;;;;;;;10.31;60.69;100347.05;107604;1255;113206;-62
2023/04/25 00:55:55;;;;;;;6.50;4.20;;;;;;;10.31;60.46;100347.92;107561;1253;109505;-62
2023/04/25 00:58:24;;;;;;;11.20;4.00;;;;;;;10.34;60.65;100343.40;107731;1251;108621;-64
2023/04/25 01:00:53;;;;;;;8.20;3.40;;;;;;;10.36;60.88;100340.66;107765;1251;99160;-62
2023/04/25 01:03:21;;;;;;;13.20;3.50;;;;;;;10.38;61.10;100339.63;107829;1252;99719;-62
2023/04/25 01:05:51;;;;;;;7.30;3.70;;;;;;;10.37;60.81;100337.36;107577;1253;113251;-63
2023/04/25 01:08:25;;;;;;;5.80;3.70;;;;;;;10.39;60.87;100335.10;107534;1251;109927;-63
2023/04/25 01:10:53;;;;;;;;;;;;;;;10.40;60.80;100329.09;107874;1251;107680;-63
2023/04/25 01:13:22;;;;;;;12.80;4.20;;;;;;;10.39;60.79;100328.05;107790;1253;99263;-63
2023/04/25 01:15:51;;;;;;;19.40;3.80;;;;;;;10.37;61.24;100328.29;107825;1252;99660;-63
2023/04/25 01:18:21;;;;;;;12.90;3.30;;;;;;;10.28;61.41;100330.84;107757;1249;113073;-63
2023/04/25 01:20:54;;;;;;;6.70;3.40;;;;;;;10.26;61.32;100327.63;107829;1251;109673;-63
2023/04/25 01:23:23;;;;;;;13.90;4.40;;;;;;;10.28;61.42;100328.48;107594;1251;108111;-63
2023/04/25 01:25:53;;;;;;;12.10;3.80;;;;;;;10.33;61.32;100327.89;107620;1250;99213;-62
2023/04/25 01:28:23;;;;;;;10.50;3.90;;;;;;;10.35;61.75;100322.33;107543;1254;99734;-61
2023/04/25 01:30:51;;;;;;;8.50;3.70;;;;;;;10.30;62.04;100322.94;107782;1251;112653;-62
2023/04/25 01:33:22;;;;;;;12.00;4.50;;;;;;;10.23;62.21;100322.23;107783;1251;109265;-61
2023/04/25 01:35:51;;;;;;;9.10;4.40;;;;;;;10.19;62.08;100322.91;107841;1251;107667;-62
2023/04/25 01:38:21;;;;;;;13.30;3.60;;;;;;;10.16;62.66;100322.45;107680;1251;99215;-62
2023/04/25 01:40:51;;;;;;;12.20;3.80;;;;;;;10.13;62.64;100320.10;107738;1249;99154;-62
2023/04/25 01:43:20;;;;;;;19.80;3.80;;;;;;;10.12;62.67;100314.10;107722;1251;113727;-62
2023/04/25 01:45:50;;;;;;;8.50;4.50;;;;;;;10.12;62.97;100318.34;107650;1251;109374;-63
2023/04/25 01:48:19;;;;;;;8.40;4.10;;;;;;;10.13;62.59;100317.24;107722;1249;108380;-63
2023/04/25 01:50:48;;;;;;;8.30;4.00;;;;;;;10.15;62.55;100315.25;107662;1251;99183;-62
2023/04/25 01:53:16;;;;;;;8.30;3.70;;;;;;;10.14;62.69;100308.35;107622;1248;99192;-64
2023/04/25 01:55:46;;;;;;;8.90;3.50;;;;;;;10.10;62.44;100307.66;107907;1251;113588;-63
2023/04/25 01:58:17;;;;;;;12.20;3.70;;;;;;;10.07;62.39;100305.77;107881;1251;109597;-64
2023/04/25 02:01:24;;;;;;;14.30;3.80;;;;;;;10.04;62.26;100294.91;107289;1260;108123;-63
2023/04/25 02:04:08;;;;;;;12.00;4.60;;;;;;;10.05;62.47;100296.96;107218;1257;99324;-61
2023/04/25 02:06:39;;;;;;;10.20;4.60;;;;;;;10.03;62.66;100286.98;107534;1248;99262;-63
2023/04/25 02:09:08;;;;;;;9.30;3.90;;;;;;;9.99;62.81;100287.56;107874;1248;112354;-62
2023/04/25 02:11:41;;;;;;;12.30;4.60;;;;;;;9.99;62.69;100281.46;107872;1248;109019;-63
2023/04/25 02:14:29;;;;;;;10.60;4.00;;;;;;;10.00;62.93;100275.83;107694;1251;108250;-62
2023/04/25 02:17:08;;;;;;;11.70;3.40;;;;;;;10.00;62.57;100269.65;107578;1254;99260;-61
2023/04/25 02:19:37;;;;;;;6.60;4.30;;;;;;;10.01;62.36;100268.14;107708;1251;99721;-64
2023/04/25 02:22:05;;;;;;;9.10;4.80;;;;;;;10.01;62.48;100269.60;107715;1251;113408;-62
2023/04/25 02:24:34;;;;;;;9.20;4.00;;;;;;;9.98;62.47;100271.34;107603;1253;110016;-61
2023/04/25 02:27:03;;;;;;;8.10;4.00;;;;;;;9.97;62.56;100275.85;107614;1250;108928;-62
2023/04/25 02:29:32;;;;;;;10.00;4.00;;;;;;;9.99;62.68;100276.40;107601;1249;99601;-62
2023/04/25 02:32:00;;;;;;;8.00;4.00;;;;;;;10.01;62.49;100277.60;107578;1253;101620;-62
2023/04/25 02:34:29;;;;;;;9.50;3.90;;;;;;;10.06;62.54;100280.41;107688;1250;111646;-64
2023/04/25 02:37:01;;;;;;;14.80;3.50;;;;;;;10.09;62.78;100280.86;107847;1248;109309;-62
2023/04/25 02:39:30;;;;;;;10.60;3.60;;;;;;;10.06;63.04;100281.70;107588;1253;107968;-63
2023/04/25 02:41:58;;;;;;;9.40;3.30;;;;;;;10.05;63.06;100274.28;107647;1248;99243;-62
2023/04/25 02:44:30;;;;;;;7.70;3.90;;;;;;;10.01;63.62;100280.70;107845;1250;99192;-62
2023/04/25 02:46:58;;;;;;;9.70;4.20;;;;;;;9.98;63.32;100278.31;107638;1251;112760;-62
2023/04/25 02:49:27;;;;;;;11.20;3.50;;;;;;;9.99;63.20;100280.66;107580;1251;108825;-62
2023/04/25 02:51:56;;;;;;;13.00;3.60;;;;;;;9.99;63.59;100276.39;107847;1251;108173;-63
2023/04/25 02:54:25;;;;;;;7.60;3.30;;;;;;;9.98;63.41;100275.11;107734;1248;99182;-62
2023/04/25 02:56:55;;;;;;;8.30;3.70;;;;;;;9.97;63.43;100272.48;107798;1250;99774;-63
2023/04/25 02:59:27;;;;;;;12.50;4.00;;;;;;;9.96;63.45;100275.58;107733;1253;113076;-64
2023/04/25 03:01:55;;;;;;;7.00;3.50;;;;;;;9.96;63.70;100282.02;107654;1251;109384;-62
2023/04/25 03:04:25;;;;;;;15.40;4.00;;;;;;;9.93;64.13;100281.12;107925;1251;108444;-63
2023/04/25 03:06:53;;;;;;;11.00;3.50;;;;;;;9.90;63.71;100283.88;107868;1253;99158;-62
2023/04/25 03:09:22;;;;;;;9.90;4.60;;;;;;;9.90;63.79;100282.24;107602;1251;99214;-63
2023/04/25 03:11:52;;;;;;;14.90;5.30;;;;;;;9.91;63.63;100278.60;107564;1251;113198;-62
2023/04/25 03:14:20;;;;;;;16.40;4.40;;;;;;;9.91;63.73;100279.88;107599;1251;109790;-63
2023/04/25 03:16:49;;;;;;;10.90;4.20;;;;;;;9.90;63.66;100280.00;107620;1251;109088;-61
2023/04/25 03:19:18;;;;;;;18.40;4.20;;;;;;;9.89;63.51;100280.42;107453;1251;99292;-62
2023/04/25 03:21:46;;;;;;;13.20;4.30;;;;;;;9.89;63.63;100281.84;107661;1251;99148;-62
2023/04/25 03:24:15;;;;;;;25.10;5.00;;;;;;;9.89;63.64;100281.87;107722;1250;112646;-63
2023/04/25 03:26:43;;;;;;;30.10;5.20;;;;;;;9.87;63.59;100280.59;107655;1251;109646;-62
2023/04/25 03:29:12;;;;;;;17.10;5.20;;;;;;;9.79;64.29;100286.48;107573;1251;107247;-62
2023/04/25 03:31:42;;;;;;;12.00;6.20;;;;;;;9.73;64.19;100286.33;107628;1251;99186;-62
2023/04/25 03:34:11;;;;;;;13.70;5.00;;;;;;;9.70;64.56;100281.02;107922;1252;99102;-63
2023/04/25 03:36:39;;;;;;;13.30;5.20;;;;;;;9.72;64.27;100281.84;107663;1249;112675;-61
2023/04/25 03:39:09;;;;;;;19.20;5.20;;;;;;;9.74;64.38;100284.61;107629;1249;109837;-62
2023/04/25 03:41:39;;;;;;;12.40;4.60;;;;;;;9.79;64.95;100284.04;107699;1254;107965;-61
2023/04/25 03:44:12;;;;;;;21.90;5.50;;;;;;;9.82;64.65;100281.73;107717;1248;99214;-63
2023/04/25 03:46:41;;;;;;;13.40;4.30;;;;;;;9.86;64.38;100282.77;107636;1254;99083;-63
2023/04/25 03:49:10;;;;;;;17.90;5.70;;;;;;;9.90;64.46;100284.98;107443;1250;112460;-62
2023/04/25 03:52:02;;;;;;;17.60;4.60;;;;;;;9.94;64.24;100284.98;107486;1251;109722;-63
2023/04/25 03:54:37;;;;;;;9.60;4.40;;;;;;;9.97;64.24;100285.16;107606;1250;108431;-62
2023/04/25 03:57:17;;;;;;;19.90;4.30;;;;;;;10.04;64.31;100285.09;107672;1251;99199;-63
2023/04/25 03:59:45;;;;;;;15.00;4.10;;;;;;;10.10;64.00;100281.15;107517;1251;99050;-64
2023/04/25 04:02:15;;;;;;;20.60;6.00;;;;;;;10.10;63.85;100278.58;107556;1251;113467;-62
2023/04/25 04:04:44;;;;;;;12.80;4.00;;;;;;;10.12;63.64;100276.98;107651;1250;109017;-62
2023/04/25 04:07:13;;;;;;;11.60;3.90;;;;;;;10.19;63.61;100279.97;107677;1250;108674;-63
2023/04/25 04:09:45;;;;;;;18.50;4.20;;;;;;;10.27;63.41;100280.06;107546;1250;99170;-64
2023/04/25 04:12:19;;;;;;;;;;;;;;;10.32;63.26;100278.53;107631;1251;99170;-63
2023/04/25 04:14:47;;;;;;;12.50;4.20;;;;;;;10.35;63.11;100279.66;107746;1249;113105;-63
2023/04/25 04:17:16;;;;;;;16.70;5.00;;;;;;;10.38;63.11;100269.38;107827;1248;109225;-62
2023/04/25 04:19:45;;;;;;;9.10;4.50;;;;;;;10.40;63.30;100278.82;107844;1248;107761;-61
2023/04/25 04:22:18;;;;;;;14.20;4.60;;;;;;;10.46;63.08;100279.50;107862;1248;99184;-63
2023/04/25 04:24:49;;;;;;;17.00;5.00;;;;;;;10.52;62.93;100279.52;107922;1248;99067;-62
2023/04/25 04:27:41;;;;;;;24.00;4.80;;;;;;;10.65;62.85;100273.02;107676;1254;113777;-62
2023/04/25 04:30:24;;;;;;;14.20;4.10;;;;;;;10.77;62.37;100274.78;107770;1247;109987;-61
2023/04/25 04:33:01;;;;;;;9.50;4.10;;;;;;;10.85;61.87;100279.19;107876;1251;108072;-62
2023/04/25 04:35:30;;;;;;;18.90;4.80;;;;;;;10.95;61.59;100277.17;107904;1247;99105;-62
2023/04/25 04:37:59;;;;;;;19.20;5.10;;;;;;;11.05;61.63;100278.87;107908;1252;99093;-61
2023/04/25 04:40:32;;;;;;;12.90;4.30;;;;;;;11.18;61.72;100275.94;107681;1250;113044;-62
2023/04/25 04:43:28;;;;;;;13.60;3.80;;;;;;;11.27;61.19;100272.16;107474;1251;109281;-63
2023/04/25 04:46:07;;;;;;;14.00;4.40;;;;;;;11.32;60.96;100270.52;107611;1251;108286;-63
2023/04/25 04:48:58;;;;;;;11.40;4.80;;;;;;;11.37;61.00;100276.10;107574;1250;99201;-62
2023/04/25 04:51:45;;;;;;;28.50;5.10;;;;;;;11.45;60.83;100278.21;107556;1250;99047;-61
2023/04/25 04:54:31;;;;;;;13.30;4.10;;;;;;;11.52;60.69;100272.42;107551;1250;113585;-63
2023/04/25 04:57:16;;;;;;;12.90;4.40;;;;;;;11.60;60.64;100268.75;107601;1250;109970;-62
2023/04/25 05:00:10;;;;;;;18.90;4.30;;;;;;;11.68;60.55;100270.14;107570;1251;107532;-62
2023/04/25 05:02:57;;;;;;;13.50;4.80;;;;;;;11.72;60.35;100268.59;107649;1250;99168;-64
2023/04/25 05:05:58;;;;;;;18.80;5.90;;;;;;;11.80;60.39;100271.27;107576;1249;99785;-64
2023/04/25 05:08:46;;;;;;;32.40;7.20;;;;;;;11.85;60.30;100265.29;107549;1250;112961;-62
2023/04/25 05:11:35;;;;;;;24.80;5.50;;;;;;;11.91;60.36;100263.27;107470;1251;109168;-62
2023/04/25 05:14:26;;;;;;;31.10;5.90;;;;;;;11.94;60.32;100260.80;107647;1250;107888;-62
2023/04/25 05:17:10;;;;;;;19.10;4.50;;;;;;;11.98;60.40;100258.50;107872;1247;99156;-63
2023/04/25 05:19:57;;;;;;;15.40;5.00;;;;;;;11.99;60.48;100253.92;107842;1247;99704;-62
2023/04/25 05:22:55;;;;;;;18.90;4.50;;;;;;;12.02;60.79;100257.34;107771;1247;113358;-62
2023/04/25 05:25:42;;;;;;;21.30;4.00;;;;;;;12.06;60.50;100261.11;107918;1248;109529;-62
2023/04/25 05:28:23;;;;;;;22.80;5.20;;;;;;;12.13;60.35;100260.95;107781;1250;107663;-62
2023/04/25 05:31:05;;;;;;;12.60;4.90;;;;;;;12.18;60.73;100255.90;107624;1250;99911;-62
2023/04/25 05:33:49;;;;;;;16.20;5.20;;;;;;;12.24;60.81;100258.51;107699;1250;99375;-62
2023/04/25 05:36:19;;;;;;;14.60;5.50;;;;;;;12.29;60.79;100257.27;107744;1254;112676;-62
2023/04/25 05:38:48;;;;;;;13.70;4.50;;;;;;;12.32;60.55;100253.14;107659;1250;110143;-62
2023/04/25 05:41:22;;;;;;;9.00;4.60;;;;;;;12.34;60.36;100244.15;107664;1253;109552;-62
2023/04/25 05:44:15;;;;;;;17.70;5.10;;;;;;;12.38;60.25;100244.83;107479;1251;99250;-63
2023/04/25 05:46:50;;;;;;;12.00;4.00;;;;;;;12.42;60.00;100241.77;107706;1253;99612;-63
2023/04/25 05:49:24;;;;;;;17.00;4.90;;;;;;;12.44;59.75;100242.59;107518;1251;112923;-62
2023/04/25 05:52:20;;;;;;;30.10;4.70;;;;;;;12.47;59.62;100236.89;107501;1250;109621;-62
2023/04/25 05:55:12;;;;;;;20.00;4.60;;;;;;;12.52;59.57;100230.38;107473;1253;107923;-62
2023/04/25 05:57:42;;;;;;;13.30;4.00;;;;;;;12.60;59.32;100226.73;107707;1254;99623;-62
2023/04/25 06:00:15;;;;;;;28.00;3.90;;;;;;;12.68;59.05;100226.75;107703;1249;99189;-64
2023/04/25 06:02:50;;;;;;;15.30;4.30;;;;;;;12.77;58.67;100227.77;107664;1251;112499;-63
2023/04/25 06:05:20;;;;;;;13.30;4.60;;;;;;;12.85;58.47;100225.46;107677;1251;110182;-65
2023/04/25 06:07:49;;;;;;;22.90;4.70;;;;;;;12.94;58.40;100223.52;107591;1253;108573;-62
2023/04/25 06:10:18;;;;;;;15.50;4.00;;;;;;;13.03;58.40;100223.95;107575;1249;99160;-61
2023/04/25 06:12:47;;;;;;;10.40;4.10;;;;;;;13.11;58.28;100218.22;107601;1250;99673;-64
2023/04/25 06:15:16;;;;;;;21.50;5.30;;;;;;;13.20;58.38;100217.30;107600;1250;112961;-63
2023/04/25 06:17:56;;;;;;;13.50;3.70;;;;;;;13.30;58.25;100218.89;107702;1251;109825;-64
2023/04/25 06:20:25;;;;;;;17.20;3.80;;;;;;;13.41;57.91;100218.08;107549;1253;107805;-62
2023/04/25 06:22:55;;;;;;;12.30;4.40;;;;;;;13.54;57.52;100219.06;107698;1250;99765;-63
2023/04/25 06:25:31;;;;;;;19.30;5.90;;;;;;;13.66;57.38;100214.05;107598;1250;99134;-63
2023/04/25 06:28:00;;;;;;;14.70;3.90;;;;;;;13.78;57.74;100212.56;107654;1250;113030;-62
2023/04/25 06:30:29;;;;;;;24.80;4.00;;;;;;;13.90;58.11;100211.09;107748;1248;110100;-62
2023/04/25 06:33:02;;;;;;;16.00;4.50;;;;;;;14.01;58.01;100205.86;107841;1248;108293;-62
2023/04/25 06:35:31;;;;;;;16.80;4.50;;;;;;;14.15;58.05;100209.08;107573;1248;99217;-63
2023/04/25 06:38:00;;;;;;;17.10;4.30;;;;;;;14.28;57.44;100206.36;107453;1250;99052;-63
2023/04/25 06:40:30;;;;;;;14.00;3.50;;;;;;;14.37;56.13;100207.85;107607;1250;113168;-63
2023/04/25 06:42:58;;;;;;;17.10;4.30;;;;;;;14.41;55.84;100210.94;107509;1250;109539;-62
2023/04/25 06:45:44;;;;;;;15.20;5.20;;;;;;;14.47;55.55;100209.39;107608;1250;107892;-64
2023/04/25 06:48:15;;;;;;;18.80;5.40;;;;;;;14.48;56.05;100211.11;107641;1250;99103;-63
2023/04/25 06:50:44;;;;;;;19.50;5.10;;;;;;;14.51;56.55;100214.15;107762;1250;99058;-62
2023/04/25 06:53:13;;;;;;;29.60;5.30;;;;;;;14.56;56.92;100216.84;107765;1249;112856;-62
2023/04/25 06:55:44;;;;;;;23.20;4.60;;;;;;;14.58;57.08;100218.58;107721;1248;109289;-63
2023/04/25 06:58:17;;;;;;;17.40;4.50;;;;;;;14.62;57.26;100211.29;107577;1255;108637;-62
2023/04/25 07:01:05;;;;;;;14.50;4.20;;;;;;;14.67;57.28;100214.48;107593;1250;99161;-62
2023/04/25 07:03:33;;;;;;;22.10;5.90;;;;;;;14.70;57.36;100211.79;107722;1249;99064;-64
2023/04/25 07:06:07;;;;;;;;;;;;;;;14.70;57.25;100213.79;107592;1250;113230;-61
2023/04/25 07:08:35;;;;;;;20.80;4.50;;;;;;;14.75;56.93;100215.63;107552;1250;108653;-62
2023/04/25 07:11:03;;;;;;;19.10;4.20;;;;;;;14.86;56.40;100215.48;107516;1251;107906;-63
2023/04/25 07:13:32;;;;;;;24.20;4.80;;;;;;;14.94;55.45;100217.17;107660;1254;99316;-63
2023/04/25 07:16:01;;;;;;;15.60;4.90;;;;;;;15.03;54.96;100217.98;107674;1250;99796;-62
2023/04/25 07:18:31;;;;;;;14.20;4.20;;;;;;;15.07;54.68;100218.58;107641;1254;113628;-63
2023/04/25 07:21:03;;;;;;;17.20;4.00;;;;;;;15.14;54.43;100221.28;107526;1249;109122;-63
2023/04/25 07:23:33;;;;;;;12.60;4.00;;;;;;;15.18;54.36;100218.29;107519;1249;109643;-63
2023/04/25 07:26:05;;;;;;;9.80;3.90;;;;;;;15.22;53.83;100215.46;107629;1251;99166;-64
2023/04/25 07:28:34;;;;;;;12.30;3.80;;;;;;;15.21;53.89;100213.05;107731;1248;99679;-64
2023/04/25 07:31:03;;;;;;;21.80;4.50;;;;;;;15.23;53.94;100215.70;107700;1250;112701;-64
2023/04/25 07:33:33;;;;;;;25.10;4.00;;;;;;;15.24;53.93;100210.48;107653;1250;109945;-63
2023/04/25 07:36:03;;;;;;;20.40;3.90;;;;;;;15.27;54.02;100206.48;107605;1250;108254;-63
2023/04/25 07:38:31;;;;;;;18.10;4.00;;;;;;;15.29;53.97;100204.98;107763;1248;99218;-64
2023/04/25 07:41:00;;;;;;;8.90;3.90;;;;;;;15.34;53.99;100207.17;107904;1249;99706;-64
2023/04/25 07:43:28;;;;;;;10.00;3.60;;;;;;;15.40;53.94;100207.89;107641;1248;113243;-64
2023/04/25 07:45:59;;;;;;;12.10;3.70;;;;;;;15.51;53.91;100205.38;107639;1254;110036;-63
2023/04/25 07:48:29;;;;;;;10.70;4.10;;;;;;;15.61;53.71;100206.48;107558;1250;107531;-63
2023/04/25 07:50:58;;;;;;;13.40;4.40;;;;;;;15.70;53.50;100205.96;107647;1250;99096;-64
2023/04/25 07:53:35;;;;;;;18.10;4.20;;;;;;;15.79;53.53;100208.86;107705;1251;99176;-64
2023/04/25 07:56:06;;;;;;;18.40;4.60;;;;;;;15.88;53.06;100213.83;107726;1250;112888;-64
2023/04/25 07:58:38;;;;;;;19.40;4.60;;;;;;;15.89;52.97;100210.42;107677;1250;109030;-63
2023/04/25 08:01:08;;;;;;;15.30;4.80;;;;;;;15.91;52.89;100212.06;106809;1250;1072925;-62
2023/04/25 08:03:59;;;;;;;21.10;4.20;;;;;;;15.94;53.16;100213.59;107695;1250;99160;-62
2023/04/25 08:06:36;;;;;;;12.60;3.90;;;;;;;15.95;52.88;100212.60;107635;1250;99228;-65
2023/04/25 08:09:09;;;;;;;13.80;4.10;;;;;;;15.92;52.74;100217.17;107513;1250;114732;-64
2023/04/25 08:11:40;;;;;;;10.70;3.80;;;;;;;15.83;52.69;100214.44;107707;1248;109098;-62
2023/04/25 08:14:09;;;;;;;16.20;3.80;;;;;;;15.70;53.11;100219.26;107638;1249;107128;-64
2023/04/25 08:16:39;;;;;;;18.80;4.60;;;;;;;15.57;53.40;100223.02;107882;1248;99280;-62
2023/04/25 08:19:08;;;;;;;16.10;4.50;;;;;;;15.49;54.06;100219.33;107848;1248;99694;-63
2023/04/25 08:21:39;;;;;;;15.30;5.10;;;;;;;15.47;54.05;100221.99;107879;1253;112183;-63
2023/04/25 08:24:10;;;;;;;11.60;4.50;;;;;;;15.49;54.13;100228.00;107702;1248;109235;-63
2023/04/25 08:26:41;;;;;;;13.80;4.70;;;;;;;15.50;54.15;100230.07;107894;1248;106856;-63
2023/04/25 08:29:11;;;;;;;10.30;4.50;;;;;;;15.52;54.21;100230.86;107808;1251;99207;-62
2023/04/25 08:31:41;;;;;;;12.70;4.30;;;;;;;15.51;54.38;100231.78;107548;1250;99194;-62
2023/04/25 08:34:10;;;;;;;19.00;4.40;;;;;;;15.45;54.47;100232.60;107677;1250;113691;-63
2023/04/25 08:36:46;;;;;;;12.10;5.10;;;;;;;15.44;54.53;100231.46;107670;1250;110838;-63
2023/04/25 08:39:21;;;;;;;19.30;5.20;;;;;;;15.43;54.79;100230.98;107552;1253;108213;-61
2023/04/25 08:42:21;;;;;;;14.80;5.70;;;;;;;15.42;55.16;100233.01;107500;1250;99272;-62
2023/04/25 08:44:53;;;;;;;12.20;5.10;;;;;;;15.40;55.26;100232.65;107702;1250;99704;-64
2023/04/25 08:47:26;;;;;;;10.80;4.40;;;;;;;15.37;55.19;100235.71;107598;1250;112719;-64
2023/04/25 08:49:59;;;;;;;15.70;4.80;;;;;;;15.32;55.30;100226.50;107712;1250;110811;-64
2023/04/25 08:52:35;;;;;;;17.00;4.60;;;;;;;15.35;55.57;100231.27;107673;1254;108594;-63
2023/04/25 08:55:06;;;;;;;17.80;4.60;;;;;;;15.40;55.56;100224.58;107578;1250;99167;-60
2023/04/25 08:57:35;;;;;;;16.70;4.30;;;;;;;15.51;55.58;100225.79;107783;1251;100888;-61
2023/04/25 09:00:05;;;;;;;25.00;5.30;;;;;;;15.63;55.56;100225.29;107777;1250;113007;-61
2023/04/25 09:02:35;;;;;;;8.20;4.40;;;;;;;15.76;55.21;100224.62;107709;1249;109846;-63
2023/04/25 09:05:06;;;;;;;11.50;4.50;;;;;;;15.81;55.16;100222.04;107736;1250;108648;-62
2023/04/25 09:07:34;;;;;;;19.10;4.90;;;;;;;15.88;55.46;100222.50;107872;1248;99162;-63
2023/04/25 09:10:04;;;;;;;7.80;4.10;;;;;;;15.87;55.42;100228.45;107866;1248;99210;-63
2023/04/25 09:12:35;;;;;;;12.20;3.70;;;;;;;15.84;55.04;100228.75;107586;1254;112692;-62
2023/04/25 09:15:09;;;;;;;12.40;3.80;;;;;;;15.77;54.99;100230.98;107683;1248;109038;-63
2023/04/25 09:18:04;;;;;;;15.90;5.00;;;;;;;15.67;55.60;100233.78;107695;1250;108593;-62
2023/04/25 09:20:42;;;;;;;13.40;4.50;;;;;;;15.54;55.55;100237.65;107618;1249;99180;-62
2023/04/25 09:23:15;;;;;;;9.50;4.30;;;;;;;15.43;56.13;100241.50;107765;1251;99706;-62
2023/04/25 09:25:43;;;;;;;8.00;4.50;;;;;;;15.34;56.54;100245.96;107682;1248;112604;-63
2023/04/25 09:28:12;;;;;;;8.80;4.30;;;;;;;15.20;57.28;100247.45;107849;1248;109225;-62
2023/04/25 09:30:40;;;;;;;10.30;3.90;;;;;;;15.04;58.13;100241.73;107631;1251;107000;-61
2023/04/25 09:33:17;;;;;;;9.50;4.20;;;;;;;14.80;58.68;100238.52;107561;1250;99268;-61
2023/04/25 09:35:54;;;;;;;13.60;5.20;;;;;;;14.63;59.97;100242.70;107569;1250;99697;-62
2023/04/25 09:38:44;;;;;;;18.80;4.90;;;;;;;14.46;61.29;100234.23;107509;1250;114102;-62
2023/04/25 09:41:27;;;;;;;12.00;5.60;;;;;;;14.27;62.44;100234.94;107591;1250;109840;-61
2023/04/25 09:44:00;;;;;;;13.90;5.40;;;;;;;14.15;62.41;100234.77;107735;1249;108585;-61
2023/04/25 09:46:38;;;;;;;18.80;6.70;;;;;;;14.08;63.81;100235.94;107755;1249;99260;-61
2023/04/25 09:49:14;;;;;;;12.90;5.90;;;;;;;13.98;65.07;100235.95;107613;1254;99279;-59
2023/04/25 09:52:06;;;;;;;13.10;5.20;;;;;;;13.87;66.03;100232.65;107654;1251;113291;-60
2023/04/25 09:54:40;;;;;;;;;;;;;;;13.77;66.52;100232.84;107910;1253;109775;-60
2023/04/25 09:57:14;;;;;;;9.00;5.50;;;;;;;13.68;66.23;100228.79;107556;1250;107473;-61
2023/04/25 09:59:50;;;;;;;14.60;6.50;;;;;;;13.64;67.39;100226.90;107594;1251;99064;-60
2023/04/25 10:02:22;;;;;;;7.10;4.10;;;;;;;13.58;68.66;100227.05;107568;1249;99051;-61
2023/04/25 10:04:55;;;;;;;10.70;4.80;;;;;;;13.51;69.23;100224.41;107723;1250;112580;-62
2023/04/25 10:07:37;;;;;;;14.00;5.50;;;;;;;13.46;68.97;100225.28;107567;1253;111037;-62
2023/04/25 10:10:13;;;;;;;11.60;6.70;;;;;;;13.45;68.80;100221.64;107817;1248;107967;-61
2023/04/25 10:12:44;;;;;;;9.40;5.50;;;;;;;13.47;69.64;100223.52;107844;1249;99184;-61
2023/04/25 10:15:15;;;;;;;;;;;;;;;13.49;70.32;100219.24;107787;1248;99150;-60
2023/04/25 10:17:44;;;;;;;9.80;5.50;;;;;;;13.43;70.38;100215.83;107874;1248;113636;-62
2023/04/25 10:20:13;;;;;;;12.60;6.30;;;;;;;13.37;72.08;100222.25;107826;1253;109548;-61
2023/04/25 10:22:44;;;;;;;14.80;5.90;;;;;;;13.27;72.73;100221.35;107903;1248;107970;-61
2023/04/25 10:25:15;;;;;;;11.90;5.70;;;;;;;13.23;73.77;100218.39;107944;1251;99182;-62
2023/04/25 10:27:44;;;;;;;14.40;6.40;;;;;;;13.18;75.04;100216.55;107858;1248;99799;-60
2023/04/25 10:30:16;;;;;;;12.30;5.70;;;;;;;13.11;75.04;100214.39;107810;1250;111586;-61
2023/04/25 10:32:45;;;;;;;7.90;5.20;;;;;;;13.08;75.47;100217.14;107736;1251;109989;-62
2023/04/25 10:35:19;;;;;;;13.50;5.80;;;;;;;13.07;75.31;100217.25;107642;1250;107631;-61
2023/04/25 10:38:08;;;;;;;14.50;6.40;;;;;;;13.09;75.63;100214.64;107625;1248;99170;-62
2023/04/25 10:40:36;;;;;;;15.70;5.60;;;;;;;13.11;76.17;100214.31;107871;1248;99731;-60
2023/04/25 10:43:33;;;;;;;13.00;6.60;;;;;;;13.11;76.54;100212.80;107846;1248;112763;-62
2023/04/25 10:46:12;;;;;;;13.60;6.40;;;;;;;13.08;76.20;100213.12;107894;1247;110427;-61
2023/04/25 10:48:50;;;;;;;16.00;6.80;;;;;;;13.04;76.54;100207.26;107824;1248;108529;-62
2023/04/25 10:51:22;;;;;;;11.40;6.30;;;;;;;13.02;76.11;100205.33;107836;1248;99335;-63
2023/04/25 10:54:04;;;;;;;13.20;7.10;;;;;;;13.05;76.57;100203.98;107789;1250;99259;-60
2023/04/25 10:56:39;;;;;;;15.80;7.20;;;;;;;13.03;76.92;100204.71;107746;1249;112967;-62
2023/04/25 10:59:18;;;;;;;14.50;6.10;;;;;;;13.00;77.59;100199.61;107699;1250;110985;-62
2023/04/25 11:01:51;;;;;;;14.60;6.00;;;;;;;12.95;78.13;100204.09;107698;1250;108575;-63
2023/04/25 11:04:33;;;;;;;13.50;5.60;;;;;;;12.88;78.39;100196.26;107778;1250;99329;-62
2023/04/25 11:07:06;;;;;;;13.10;6.20;;;;;;;12.85;78.30;100195.67;107772;1251;99691;-62
2023/04/25 11:09:38;;;;;;;9.10;5.90;;;;;;;12.86;78.91;100193.55;107830;1251;112602;-63
2023/04/25 11:12:11;;;;;;;15.20;6.60;;;;;;;12.88;78.83;100191.41;107783;1250;108290;-62
2023/04/25 11:14:41;;;;;;;12.50;6.40;;;;;;;12.92;78.88;100183.36;107609;1250;107680;-61
2023/04/25 11:17:10;;;;;;;9.80;6.00;;;;;;;12.96;79.67;100185.77;107727;1249;100709;-63
2023/04/25 11:19:39;;;;;;;11.20;5.70;;;;;;;12.96;79.63;100189.61;107724;1250;99173;-63
2023/04/25 11:22:10;;;;;;;12.10;6.30;;;;;;;12.93;79.81;100187.02;107687;1251;112661;-61
2023/04/25 11:24:39;;;;;;;15.00;7.00;;;;;;;12.90;80.21;100182.33;107892;1248;109634;-61
2023/04/25 11:27:08;;;;;;;12.40;5.90;;;;;;;12.90;79.84;100182.16;107559;1248;108234;-61
2023/04/25 11:29:37;;;;;;;13.00;5.70;;;;;;;12.91;80.14;100179.55;107614;1248;99045;-61
2023/04/25 11:32:06;;;;;;;15.40;6.30;;;;;;;12.90;80.30;100174.65;107833;1248;99804;-62
2023/04/25 11:34:35;;;;;;;9.50;5.60;;;;;;;12.90;80.58;100178.95;107755;1249;113128;-62
2023/04/25 11:37:04;;;;;;;12.10;5.40;;;;;;;12.91;80.13;100180.03;107740;1251;110031;-62